sensor_id;sensor_type;location;lat;lon;timestamp;P1;durP1;ratioP1;P2;durP2;ratioP2
74523;SDS011;63074;44.696;10.358;2023-02-13T00:01:31;37.78;;;20.35;;
74523;SDS011;63074;44.696;10.358;2023-02-13T00:03:58;48.90;;;23.58;;
74523;SDS011;63074;44.696;10.358;2023-02-13T00:06:25;47.47;;;22.05;;
74523;SDS011;63074;44.696;10.358;2023-02-13T00:08:51;52.92;;;26.80;;
74523;SDS011;63074;44.696;10.358;2023-02-13T00:11:17;54.72;;;29.08;;
74523;SDS011;63074;44.696;10.358;2023-02-13T00:13:44;53.28;;;27.15;;
74523;SDS011;63074;44.696;10.358;2023-02-13T00:16:11;49.97;;;25.83;;
74523;SDS011;63074;44.696;10.358;2023-02-13T00:18:38;51.15;;;26.75;;
74523;SDS011;63074;44.696;10.358;2023-02-13T00:21:05;51.47;;;25.45;;
74523;SDS011;63074;44.696;10.358;2023-02-13T00:23:34;48.30;;;22.95;;
74523;SDS011;63074;44.696;10.358;2023-02-13T00:26:04;45.97;;;22.50;;
74523;SDS011;63074;44.696;10.358;2023-02-13T00:28:35;34.53;;;19.23;;
74523;SDS011;63074;44.696;10.358;2023-02-13T00:31:02;37.95;;;19.95;;
74523;SDS011;63074;44.696;10.358;2023-02-13T00:33:29;32.58;;;16.67;;
74523;SDS011;63074;44.696;10.358;2023-02-13T00:36:06;37.78;;;18.35;;
74523;SDS011;63074;44.696;10.358;2023-02-13T00:38:36;30.35;;;16.20;;
74523;SDS011;63074;44.696;10.358;2023-02-13T00:41:04;28.73;;;14.60;;
74523;SDS011;63074;44.696;10.358;2023-02-13T00:43:31;27.30;;;13.75;;
74523;SDS011;63074;44.696;10.358;2023-02-13T00:46:00;25.17;;;13.43;;
74523;SDS011;63074;44.696;10.358;2023-02-13T00:48:26;25.83;;;12.65;;
74523;SDS011;63074;44.696;10.358;2023-02-13T00:50:53;23.52;;;12.77;;
74523;SDS011;63074;44.696;10.358;2023-02-13T00:53:20;23.77;;;12.15;;
74523;SDS011;63074;44.696;10.358;2023-02-13T00:55:48;22.50;;;11.65;;
74523;SDS011;63074;44.696;10.358;2023-02-13T00:58:17;21.70;;;11.60;;
74523;SDS011;63074;44.696;10.358;2023-02-13T01:00:43;22.63;;;10.25;;
74523;SDS011;63074;44.696;10.358;2023-02-13T01:03:11;20.25;;;10.75;;
74523;SDS011;63074;44.696;10.358;2023-02-13T01:05:38;19.77;;;10.55;;
74523;SDS011;63074;44.696;10.358;2023-02-13T01:08:05;22.50;;;10.52;;
74523;SDS011;63074;44.696;10.358;2023-02-13T01:10:33;21.25;;;10.40;;
74523;SDS011;63074;44.696;10.358;2023-02-13T01:13:01;20.23;;;10.30;;
74523;SDS011;63074;44.696;10.358;2023-02-13T01:15:27;18.98;;;10.15;;
74523;SDS011;63074;44.696;10.358;2023-02-13T01:17:53;19.88;;;9.80;;
74523;SDS011;63074;44.696;10.358;2023-02-13T01:20:21;19.40;;;9.68;;
74523;SDS011;63074;44.696;10.358;2023-02-13T01:22:49;19.50;;;9.73;;
74523;SDS011;63074;44.696;10.358;2023-02-13T01:25:15;21.15;;;9.30;;
74523;SDS011;63074;44.696;10.358;2023-02-13T01:27:41;18.73;;;9.95;;
74523;SDS011;63074;44.696;10.358;2023-02-13T01:30:09;16.65;;;9.05;;
74523;SDS011;63074;44.696;10.358;2023-02-13T01:32:40;19.02;;;9.38;;
74523;SDS011;63074;44.696;10.358;2023-02-13T01:35:08;17.75;;;9.48;;
74523;SDS011;63074;44.696;10.358;2023-02-13T01:37:36;22.60;;;10.18;;
74523;SDS011;63074;44.696;10.358;2023-02-13T01:40:03;18.02;;;9.27;;
74523;SDS011;63074;44.696;10.358;2023-02-13T01:42:33;21.52;;;10.20;;
74523;SDS011;63074;44.696;10.358;2023-02-13T01:45:01;20.98;;;10.10;;
74523;SDS011;63074;44.696;10.358;2023-02-13T01:55:52;22.02;;;10.20;;
74523;SDS011;63074;44.696;10.358;2023-02-13T01:58:23;21.02;;;10.60;;
74523;SDS011;63074;44.696;10.358;2023-02-13T02:00:53;22.50;;;11.20;;
74523;SDS011;63074;44.696;10.358;2023-02-13T02:05:50;23.15;;;11.07;;
74523;SDS011;63074;44.696;10.358;2023-02-13T02:08:18;22.40;;;11.13;;
74523;SDS011;63074;44.696;10.358;2023-02-13T02:10:45;23.67;;;12.18;;
74523;SDS011;63074;44.696;10.358;2023-02-13T02:13:12;25.60;;;11.20;;
74523;SDS011;63074;44.696;10.358;2023-02-13T02:15:42;20.95;;;10.43;;
74523;SDS011;63074;44.696;10.358;2023-02-13T02:18:17;22.50;;;10.27;;
74523;SDS011;63074;44.696;10.358;2023-02-13T02:31:18;21.67;;;9.57;;
74523;SDS011;63074;44.696;10.358;2023-02-13T02:39:45;17.38;;;8.77;;
74523;SDS011;63074;44.696;10.358;2023-02-13T02:42:32;22.45;;;9.73;;
74523;SDS011;63074;44.696;10.358;2023-02-13T02:48:18;18.17;;;8.77;;
74523;SDS011;63074;44.696;10.358;2023-02-13T02:53:50;17.42;;;7.90;;
74523;SDS011;63074;44.696;10.358;2023-02-13T02:56:25;17.77;;;8.20;;
74523;SDS011;63074;44.696;10.358;2023-02-13T02:59:07;17.88;;;9.13;;
74523;SDS011;63074;44.696;10.358;2023-02-13T03:01:58;16.25;;;8.68;;
74523;SDS011;63074;44.696;10.358;2023-02-13T03:04:49;16.33;;;8.38;;
74523;SDS011;63074;44.696;10.358;2023-02-13T03:07:36;18.95;;;7.70;;
74523;SDS011;63074;44.696;10.358;2023-02-13T03:10:05;15.68;;;7.90;;
74523;SDS011;63074;44.696;10.358;2023-02-13T03:13:03;19.33;;;8.88;;
74523;SDS011;63074;44.696;10.358;2023-02-13T03:15:46;17.17;;;8.43;;
74523;SDS011;63074;44.696;10.358;2023-02-13T03:18:34;18.00;;;8.80;;
74523;SDS011;63074;44.696;10.358;2023-02-13T03:21:30;16.77;;;9.02;;
74523;SDS011;63074;44.696;10.358;2023-02-13T03:42:14;22.25;;;10.68;;
74523;SDS011;63074;44.696;10.358;2023-02-13T03:44:52;18.77;;;9.40;;
74523;SDS011;63074;44.696;10.358;2023-02-13T03:47:53;21.23;;;9.85;;
74523;SDS011;63074;44.696;10.358;2023-02-13T03:50:21;18.63;;;9.45;;
74523;SDS011;63074;44.696;10.358;2023-02-13T03:52:54;22.17;;;8.93;;
74523;SDS011;63074;44.696;10.358;2023-02-13T03:55:35;19.38;;;9.43;;
74523;SDS011;63074;44.696;10.358;2023-02-13T03:58:33;19.67;;;9.65;;
74523;SDS011;63074;44.696;10.358;2023-02-13T04:01:21;17.45;;;9.02;;
74523;SDS011;63074;44.696;10.358;2023-02-13T04:03:55;18.45;;;9.02;;
74523;SDS011;63074;44.696;10.358;2023-02-13T04:06:38;23.55;;;9.90;;
74523;SDS011;63074;44.696;10.358;2023-02-13T04:09:11;19.23;;;10.25;;
74523;SDS011;63074;44.696;10.358;2023-02-13T04:17:28;17.67;;;9.38;;
74523;SDS011;63074;44.696;10.358;2023-02-13T04:20:00;17.65;;;9.02;;
74523;SDS011;63074;44.696;10.358;2023-02-13T04:22:26;20.80;;;10.40;;
74523;SDS011;63074;44.696;10.358;2023-02-13T04:24:52;21.33;;;9.95;;
74523;SDS011;63074;44.696;10.358;2023-02-13T04:27:18;18.70;;;9.32;;
74523;SDS011;63074;44.696;10.358;2023-02-13T04:29:45;16.65;;;9.68;;
74523;SDS011;63074;44.696;10.358;2023-02-13T04:32:11;17.00;;;10.10;;
74523;SDS011;63074;44.696;10.358;2023-02-13T04:34:38;19.88;;;10.02;;
74523;SDS011;63074;44.696;10.358;2023-02-13T04:37:04;18.13;;;8.98;;
74523;SDS011;63074;44.696;10.358;2023-02-13T04:39:31;17.77;;;9.07;;
74523;SDS011;63074;44.696;10.358;2023-02-13T04:41:57;19.98;;;9.82;;
74523;SDS011;63074;44.696;10.358;2023-02-13T04:44:26;18.20;;;9.10;;
74523;SDS011;63074;44.696;10.358;2023-02-13T04:46:55;17.52;;;8.35;;
74523;SDS011;63074;44.696;10.358;2023-02-13T04:49:21;17.95;;;7.82;;
74523;SDS011;63074;44.696;10.358;2023-02-13T04:51:47;15.60;;;9.15;;
74523;SDS011;63074;44.696;10.358;2023-02-13T04:54:13;16.40;;;9.15;;
74523;SDS011;63074;44.696;10.358;2023-02-13T04:56:39;16.73;;;8.30;;
74523;SDS011;63074;44.696;10.358;2023-02-13T04:59:05;17.25;;;8.57;;
74523;SDS011;63074;44.696;10.358;2023-02-13T05:01:32;15.85;;;8.35;;
74523;SDS011;63074;44.696;10.358;2023-02-13T05:03:58;18.75;;;7.53;;
74523;SDS011;63074;44.696;10.358;2023-02-13T05:06:24;21.67;;;8.20;;
74523;SDS011;63074;44.696;10.358;2023-02-13T05:08:50;15.57;;;8.05;;
74523;SDS011;63074;44.696;10.358;2023-02-13T05:11:16;18.48;;;8.38;;
74523;SDS011;63074;44.696;10.358;2023-02-13T05:13:42;15.15;;;7.55;;
74523;SDS011;63074;44.696;10.358;2023-02-13T05:16:08;14.48;;;7.15;;
74523;SDS011;63074;44.696;10.358;2023-02-13T05:18:35;15.30;;;7.78;;
74523;SDS011;63074;44.696;10.358;2023-02-13T05:21:02;20.30;;;8.45;;
74523;SDS011;63074;44.696;10.358;2023-02-13T05:23:46;17.80;;;7.80;;
74523;SDS011;63074;44.696;10.358;2023-02-13T05:26:12;16.30;;;7.93;;
74523;SDS011;63074;44.696;10.358;2023-02-13T05:28:39;17.73;;;8.38;;
74523;SDS011;63074;44.696;10.358;2023-02-13T05:31:26;18.70;;;7.72;;
74523;SDS011;63074;44.696;10.358;2023-02-13T05:33:52;14.55;;;7.80;;
74523;SDS011;63074;44.696;10.358;2023-02-13T05:36:19;16.58;;;8.10;;
74523;SDS011;63074;44.696;10.358;2023-02-13T05:38:45;15.68;;;7.53;;
74523;SDS011;63074;44.696;10.358;2023-02-13T05:41:11;17.60;;;7.88;;
74523;SDS011;63074;44.696;10.358;2023-02-13T05:43:38;15.27;;;6.85;;
74523;SDS011;63074;44.696;10.358;2023-02-13T05:46:05;14.10;;;6.80;;
74523;SDS011;63074;44.696;10.358;2023-02-13T05:48:33;18.70;;;9.20;;
74523;SDS011;63074;44.696;10.358;2023-02-13T05:51:00;17.00;;;8.25;;
74523;SDS011;63074;44.696;10.358;2023-02-13T05:53:26;16.13;;;8.07;;
74523;SDS011;63074;44.696;10.358;2023-02-13T05:55:53;16.50;;;7.63;;
74523;SDS011;63074;44.696;10.358;2023-02-13T05:58:20;16.38;;;7.95;;
74523;SDS011;63074;44.696;10.358;2023-02-13T06:00:46;15.82;;;7.22;;
74523;SDS011;63074;44.696;10.358;2023-02-13T06:03:13;15.63;;;7.50;;
74523;SDS011;63074;44.696;10.358;2023-02-13T06:05:39;14.10;;;6.63;;
74523;SDS011;63074;44.696;10.358;2023-02-13T06:08:05;15.52;;;7.57;;
74523;SDS011;63074;44.696;10.358;2023-02-13T06:10:32;13.18;;;6.93;;
74523;SDS011;63074;44.696;10.358;2023-02-13T06:12:58;14.05;;;6.95;;
74523;SDS011;63074;44.696;10.358;2023-02-13T06:15:24;15.00;;;7.00;;
74523;SDS011;63074;44.696;10.358;2023-02-13T06:17:51;16.00;;;7.78;;
74523;SDS011;63074;44.696;10.358;2023-02-13T06:20:17;14.80;;;6.70;;
74523;SDS011;63074;44.696;10.358;2023-02-13T06:22:45;15.27;;;7.45;;
74523;SDS011;63074;44.696;10.358;2023-02-13T06:25:13;12.82;;;6.35;;
74523;SDS011;63074;44.696;10.358;2023-02-13T06:27:40;15.68;;;7.18;;
74523;SDS011;63074;44.696;10.358;2023-02-13T06:30:06;13.98;;;5.88;;
74523;SDS011;63074;44.696;10.358;2023-02-13T06:32:33;15.68;;;6.82;;
74523;SDS011;63074;44.696;10.358;2023-02-13T06:34:59;15.43;;;6.72;;
74523;SDS011;63074;44.696;10.358;2023-02-13T06:37:26;16.58;;;7.82;;
74523;SDS011;63074;44.696;10.358;2023-02-13T06:39:52;14.95;;;7.55;;
74523;SDS011;63074;44.696;10.358;2023-02-13T06:42:18;13.13;;;7.22;;
74523;SDS011;63074;44.696;10.358;2023-02-13T06:44:44;13.50;;;7.10;;
74523;SDS011;63074;44.696;10.358;2023-02-13T06:47:10;18.38;;;8.73;;
74523;SDS011;63074;44.696;10.358;2023-02-13T06:49:36;15.02;;;7.07;;
74523;SDS011;63074;44.696;10.358;2023-02-13T06:52:03;16.50;;;7.50;;
74523;SDS011;63074;44.696;10.358;2023-02-13T06:54:29;22.35;;;9.98;;
74523;SDS011;63074;44.696;10.358;2023-02-13T06:56:55;18.73;;;8.75;;
74523;SDS011;63074;44.696;10.358;2023-02-13T06:59:21;19.30;;;9.00;;
74523;SDS011;63074;44.696;10.358;2023-02-13T07:01:48;22.17;;;10.27;;
74523;SDS011;63074;44.696;10.358;2023-02-13T07:04:14;20.70;;;10.75;;
74523;SDS011;63074;44.696;10.358;2023-02-13T07:06:40;21.13;;;9.88;;
74523;SDS011;63074;44.696;10.358;2023-02-13T07:09:06;26.05;;;11.77;;
74523;SDS011;63074;44.696;10.358;2023-02-13T07:11:32;24.88;;;11.45;;
74523;SDS011;63074;44.696;10.358;2023-02-13T07:13:59;22.08;;;10.35;;
74523;SDS011;63074;44.696;10.358;2023-02-13T07:16:25;18.23;;;9.57;;
74523;SDS011;63074;44.696;10.358;2023-02-13T07:18:51;21.00;;;10.75;;
74523;SDS011;63074;44.696;10.358;2023-02-13T07:21:17;22.88;;;11.13;;
74523;SDS011;63074;44.696;10.358;2023-02-13T07:23:43;19.80;;;9.95;;
74523;SDS011;63074;44.696;10.358;2023-02-13T07:26:10;21.20;;;9.95;;
74523;SDS011;63074;44.696;10.358;2023-02-13T07:28:36;21.17;;;10.38;;
74523;SDS011;63074;44.696;10.358;2023-02-13T07:31:03;18.95;;;8.82;;
74523;SDS011;63074;44.696;10.358;2023-02-13T07:33:30;19.35;;;9.05;;
74523;SDS011;63074;44.696;10.358;2023-02-13T07:35:57;19.00;;;9.50;;
74523;SDS011;63074;44.696;10.358;2023-02-13T07:38:23;16.10;;;7.95;;
74523;SDS011;63074;44.696;10.358;2023-02-13T07:40:49;19.25;;;8.60;;
74523;SDS011;63074;44.696;10.358;2023-02-13T07:43:15;18.42;;;8.73;;
74523;SDS011;63074;44.696;10.358;2023-02-13T07:45:41;17.95;;;8.85;;
74523;SDS011;63074;44.696;10.358;2023-02-13T07:48:08;15.02;;;7.65;;
74523;SDS011;63074;44.696;10.358;2023-02-13T07:50:36;15.52;;;8.23;;
74523;SDS011;63074;44.696;10.358;2023-02-13T07:53:02;17.52;;;9.60;;
74523;SDS011;63074;44.696;10.358;2023-02-13T07:55:28;18.85;;;8.43;;
74523;SDS011;63074;44.696;10.358;2023-02-13T07:57:55;19.20;;;8.32;;
74523;SDS011;63074;44.696;10.358;2023-02-13T08:00:24;19.58;;;10.10;;
74523;SDS011;63074;44.696;10.358;2023-02-13T08:02:50;21.50;;;9.55;;
74523;SDS011;63074;44.696;10.358;2023-02-13T08:05:16;17.10;;;8.73;;
74523;SDS011;63074;44.696;10.358;2023-02-13T08:07:42;21.13;;;10.45;;
74523;SDS011;63074;44.696;10.358;2023-02-13T08:10:10;31.38;;;13.88;;
74523;SDS011;63074;44.696;10.358;2023-02-13T08:12:55;29.48;;;14.52;;
74523;SDS011;63074;44.696;10.358;2023-02-13T08:15:22;36.75;;;17.05;;
74523;SDS011;63074;44.696;10.358;2023-02-13T08:17:48;39.70;;;19.77;;
74523;SDS011;63074;44.696;10.358;2023-02-13T08:20:15;46.08;;;22.42;;
74523;SDS011;63074;44.696;10.358;2023-02-13T08:22:42;45.80;;;22.38;;
74523;SDS011;63074;44.696;10.358;2023-02-13T08:25:08;44.72;;;23.80;;
74523;SDS011;63074;44.696;10.358;2023-02-13T08:27:35;52.20;;;24.10;;
74523;SDS011;63074;44.696;10.358;2023-02-13T08:30:02;51.33;;;25.33;;
74523;SDS011;63074;44.696;10.358;2023-02-13T08:32:30;51.28;;;25.95;;
74523;SDS011;63074;44.696;10.358;2023-02-13T08:34:56;49.83;;;25.15;;
74523;SDS011;63074;44.696;10.358;2023-02-13T08:37:22;53.08;;;26.60;;
74523;SDS011;63074;44.696;10.358;2023-02-13T08:39:49;50.88;;;26.77;;
74523;SDS011;63074;44.696;10.358;2023-02-13T08:42:15;55.72;;;25.90;;
74523;SDS011;63074;44.696;10.358;2023-02-13T08:44:42;54.45;;;27.25;;
74523;SDS011;63074;44.696;10.358;2023-02-13T08:47:10;43.88;;;21.92;;
74523;SDS011;63074;44.696;10.358;2023-02-13T08:49:36;53.95;;;28.38;;
74523;SDS011;63074;44.696;10.358;2023-02-13T08:52:03;57.13;;;27.73;;
74523;SDS011;63074;44.696;10.358;2023-02-13T08:54:29;53.78;;;27.05;;
74523;SDS011;63074;44.696;10.358;2023-02-13T08:56:57;47.45;;;25.60;;
74523;SDS011;63074;44.696;10.358;2023-02-13T08:59:23;51.85;;;25.70;;
74523;SDS011;63074;44.696;10.358;2023-02-13T09:01:49;53.95;;;26.15;;
74523;SDS011;63074;44.696;10.358;2023-02-13T09:04:16;63.72;;;30.52;;
74523;SDS011;63074;44.696;10.358;2023-02-13T09:06:42;62.42;;;31.85;;
74523;SDS011;63074;44.696;10.358;2023-02-13T09:09:09;60.03;;;31.92;;
74523;SDS011;63074;44.696;10.358;2023-02-13T09:11:35;67.43;;;33.00;;
74523;SDS011;63074;44.696;10.358;2023-02-13T09:14:02;63.10;;;32.13;;
74523;SDS011;63074;44.696;10.358;2023-02-13T09:16:28;66.05;;;33.88;;
74523;SDS011;63074;44.696;10.358;2023-02-13T09:18:54;67.03;;;32.88;;
74523;SDS011;63074;44.696;10.358;2023-02-13T09:21:21;62.88;;;32.83;;
74523;SDS011;63074;44.696;10.358;2023-02-13T09:23:48;62.63;;;32.65;;
74523;SDS011;63074;44.696;10.358;2023-02-13T09:26:19;67.32;;;34.58;;
74523;SDS011;63074;44.696;10.358;2023-02-13T09:28:48;57.95;;;27.45;;
74523;SDS011;63074;44.696;10.358;2023-02-13T09:31:15;64.22;;;32.50;;
74523;SDS011;63074;44.696;10.358;2023-02-13T09:33:44;65.70;;;32.70;;
74523;SDS011;63074;44.696;10.358;2023-02-13T09:36:13;68.30;;;35.45;;
74523;SDS011;63074;44.696;10.358;2023-02-13T09:38:45;67.07;;;33.95;;
74523;SDS011;63074;44.696;10.358;2023-02-13T09:41:23;67.40;;;33.83;;
74523;SDS011;63074;44.696;10.358;2023-02-13T09:43:56;70.35;;;32.33;;
74523;SDS011;63074;44.696;10.358;2023-02-13T09:49:00;67.80;;;32.85;;
74523;SDS011;63074;44.696;10.358;2023-02-13T09:51:43;64.03;;;32.20;;
74523;SDS011;63074;44.696;10.358;2023-02-13T09:54:13;63.53;;;32.22;;
74523;SDS011;63074;44.696;10.358;2023-02-13T10:10:51;63.65;;;31.80;;
74523;SDS011;63074;44.696;10.358;2023-02-13T10:16:29;61.47;;;32.33;;
74523;SDS011;63074;44.696;10.358;2023-02-13T10:21:37;62.05;;;33.45;;
74523;SDS011;63074;44.696;10.358;2023-02-13T10:26:57;63.83;;;31.52;;
74523;SDS011;63074;44.696;10.358;2023-02-13T10:29:37;67.20;;;35.22;;
74523;SDS011;63074;44.696;10.358;2023-02-13T10:35:35;73.07;;;34.47;;
74523;SDS011;63074;44.696;10.358;2023-02-13T10:38:08;67.93;;;33.05;;
74523;SDS011;63074;44.696;10.358;2023-02-13T10:40:46;71.13;;;35.05;;
74523;SDS011;63074;44.696;10.358;2023-02-13T10:43:28;75.35;;;35.88;;
74523;SDS011;63074;44.696;10.358;2023-02-13T10:46:09;68.85;;;34.97;;
74523;SDS011;63074;44.696;10.358;2023-02-13T10:51:35;71.55;;;35.20;;
74523;SDS011;63074;44.696;10.358;2023-02-13T10:54:27;70.28;;;36.28;;
74523;SDS011;63074;44.696;10.358;2023-02-13T11:00:02;65.30;;;35.47;;
74523;SDS011;63074;44.696;10.358;2023-02-13T11:02:38;62.25;;;34.50;;
74523;SDS011;63074;44.696;10.358;2023-02-13T11:08:14;68.22;;;34.90;;
74523;SDS011;63074;44.696;10.358;2023-02-13T11:10:44;66.88;;;33.72;;
74523;SDS011;63074;44.696;10.358;2023-02-13T11:13:14;63.70;;;35.33;;
74523;SDS011;63074;44.696;10.358;2023-02-13T11:16:03;70.72;;;36.33;;
74523;SDS011;63074;44.696;10.358;2023-02-13T11:18:41;61.40;;;31.75;;
74523;SDS011;63074;44.696;10.358;2023-02-13T11:21:30;63.08;;;31.73;;
74523;SDS011;63074;44.696;10.358;2023-02-13T11:24:01;60.53;;;30.83;;
74523;SDS011;63074;44.696;10.358;2023-02-13T11:28:59;63.50;;;34.53;;
74523;SDS011;63074;44.696;10.358;2023-02-13T11:31:48;63.15;;;33.92;;
74523;SDS011;63074;44.696;10.358;2023-02-13T11:34:29;60.45;;;32.00;;
74523;SDS011;63074;44.696;10.358;2023-02-13T11:39:38;70.45;;;34.15;;
74523;SDS011;63074;44.696;10.358;2023-02-13T11:42:25;60.75;;;30.67;;
74523;SDS011;63074;44.696;10.358;2023-02-13T11:45:00;65.95;;;34.92;;
74523;SDS011;63074;44.696;10.358;2023-02-13T11:47:31;63.15;;;33.80;;
74523;SDS011;63074;44.696;10.358;2023-02-13T11:49:58;56.55;;;27.98;;
74523;SDS011;63074;44.696;10.358;2023-02-13T11:52:26;58.97;;;29.70;;
74523;SDS011;63074;44.696;10.358;2023-02-13T11:54:59;60.15;;;31.50;;
74523;SDS011;63074;44.696;10.358;2023-02-13T12:00:24;60.13;;;32.45;;
74523;SDS011;63074;44.696;10.358;2023-02-13T12:02:56;59.65;;;31.83;;
74523;SDS011;63074;44.696;10.358;2023-02-13T12:05:26;57.92;;;31.58;;
74523;SDS011;63074;44.696;10.358;2023-02-13T12:07:57;56.75;;;29.58;;
74523;SDS011;63074;44.696;10.358;2023-02-13T12:10:29;58.75;;;30.90;;
74523;SDS011;63074;44.696;10.358;2023-02-13T12:15:45;62.65;;;32.63;;
74523;SDS011;63074;44.696;10.358;2023-02-13T12:26:52;54.35;;;30.30;;
74523;SDS011;63074;44.696;10.358;2023-02-13T12:41:01;48.55;;;27.95;;
74523;SDS011;63074;44.696;10.358;2023-02-13T12:46:59;55.70;;;31.70;;
74523;SDS011;63074;44.696;10.358;2023-02-13T12:57:47;50.22;;;27.75;;
74523;SDS011;63074;44.696;10.358;2023-02-13T13:00:48;48.90;;;27.58;;
74523;SDS011;63074;44.696;10.358;2023-02-13T13:27:37;44.00;;;26.58;;
74523;SDS011;63074;44.696;10.358;2023-02-13T13:30:15;44.47;;;26.08;;
74523;SDS011;63074;44.696;10.358;2023-02-13T13:35:45;42.40;;;24.67;;
74523;SDS011;63074;44.696;10.358;2023-02-13T13:41:10;45.47;;;26.55;;
74523;SDS011;63074;44.696;10.358;2023-02-13T13:49:37;40.70;;;23.98;;
74523;SDS011;63074;44.696;10.358;2023-02-13T13:52:26;40.83;;;22.42;;
74523;SDS011;63074;44.696;10.358;2023-02-13T13:54:56;40.10;;;23.23;;
74523;SDS011;63074;44.696;10.358;2023-02-13T13:57:27;38.30;;;23.00;;
74523;SDS011;63074;44.696;10.358;2023-02-13T14:00:22;38.30;;;23.63;;
74523;SDS011;63074;44.696;10.358;2023-02-13T14:03:11;40.28;;;22.67;;
74523;SDS011;63074;44.696;10.358;2023-02-13T14:05:59;38.10;;;23.38;;
74523;SDS011;63074;44.696;10.358;2023-02-13T14:16:54;40.80;;;24.45;;
74523;SDS011;63074;44.696;10.358;2023-02-13T14:19:37;37.03;;;21.70;;
74523;SDS011;63074;44.696;10.358;2023-02-13T14:22:30;40.65;;;23.27;;
74523;SDS011;63074;44.696;10.358;2023-02-13T14:25:04;37.25;;;22.42;;
74523;SDS011;63074;44.696;10.358;2023-02-13T14:27:51;38.38;;;20.95;;
74523;SDS011;63074;44.696;10.358;2023-02-13T14:32:51;42.22;;;25.05;;
74523;SDS011;63074;44.696;10.358;2023-02-13T14:35:25;39.03;;;23.35;;
74523;SDS011;63074;44.696;10.358;2023-02-13T14:37:54;38.50;;;22.70;;
74523;SDS011;63074;44.696;10.358;2023-02-13T14:49:16;39.17;;;24.20;;
74523;SDS011;63074;44.696;10.358;2023-02-13T14:51:48;41.17;;;25.88;;
74523;SDS011;63074;44.696;10.358;2023-02-13T14:59:37;41.28;;;24.48;;
74523;SDS011;63074;44.696;10.358;2023-02-13T15:02:21;43.20;;;25.13;;
74523;SDS011;63074;44.696;10.358;2023-02-13T15:07:34;39.90;;;24.50;;
74523;SDS011;63074;44.696;10.358;2023-02-13T15:12:59;40.70;;;24.38;;
74523;SDS011;63074;44.696;10.358;2023-02-13T15:18:00;40.42;;;25.08;;
74523;SDS011;63074;44.696;10.358;2023-02-13T15:23:03;41.50;;;24.10;;
74523;SDS011;63074;44.696;10.358;2023-02-13T15:25:39;46.58;;;23.80;;
74523;SDS011;63074;44.696;10.358;2023-02-13T15:28:07;40.90;;;24.30;;
74523;SDS011;63074;44.696;10.358;2023-02-13T15:30:50;40.42;;;23.50;;
74523;SDS011;63074;44.696;10.358;2023-02-13T15:33:20;43.38;;;24.95;;
74523;SDS011;63074;44.696;10.358;2023-02-13T15:36:21;40.92;;;24.17;;
74523;SDS011;63074;44.696;10.358;2023-02-13T15:38:44;36.25;;;23.17;;
74523;SDS011;63074;44.696;10.358;2023-02-13T15:41:17;41.20;;;22.88;;
74523;SDS011;63074;44.696;10.358;2023-02-13T15:43:50;40.83;;;23.80;;
74523;SDS011;63074;44.696;10.358;2023-02-13T15:46:23;42.00;;;22.80;;
74523;SDS011;63074;44.696;10.358;2023-02-13T15:48:52;39.42;;;23.17;;
74523;SDS011;63074;44.696;10.358;2023-02-13T15:51:21;40.25;;;23.58;;
74523;SDS011;63074;44.696;10.358;2023-02-13T15:53:56;42.00;;;21.67;;
74523;SDS011;63074;44.696;10.358;2023-02-13T15:56:25;40.83;;;21.48;;
74523;SDS011;63074;44.696;10.358;2023-02-13T15:58:51;39.35;;;23.73;;
74523;SDS011;63074;44.696;10.358;2023-02-13T16:01:19;39.28;;;22.88;;
74523;SDS011;63074;44.696;10.358;2023-02-13T16:03:48;42.28;;;22.83;;
74523;SDS011;63074;44.696;10.358;2023-02-13T16:06:18;40.42;;;21.63;;
74523;SDS011;63074;44.696;10.358;2023-02-13T16:13:55;39.92;;;22.02;;
74523;SDS011;63074;44.696;10.358;2023-02-13T16:16:24;40.90;;;22.35;;
74523;SDS011;63074;44.696;10.358;2023-02-13T16:18:53;39.60;;;23.13;;
74523;SDS011;63074;44.696;10.358;2023-02-13T16:21:20;38.67;;;21.38;;
74523;SDS011;63074;44.696;10.358;2023-02-13T16:23:50;37.63;;;21.30;;
74523;SDS011;63074;44.696;10.358;2023-02-13T16:26:22;40.45;;;22.00;;
74523;SDS011;63074;44.696;10.358;2023-02-13T16:28:48;40.70;;;22.30;;
74523;SDS011;63074;44.696;10.358;2023-02-13T16:31:14;39.70;;;22.08;;
74523;SDS011;63074;44.696;10.358;2023-02-13T16:33:43;37.08;;;21.20;;
74523;SDS011;63074;44.696;10.358;2023-02-13T16:48:45;43.33;;;21.58;;
74523;SDS011;63074;44.696;10.358;2023-02-13T16:56:36;37.55;;;20.38;;
74523;SDS011;63074;44.696;10.358;2023-02-13T17:04:38;41.05;;;22.45;;
74523;SDS011;63074;44.696;10.358;2023-02-13T17:07:29;44.22;;;24.20;;
74523;SDS011;63074;44.696;10.358;2023-02-13T17:12:51;41.03;;;22.38;;
74523;SDS011;63074;44.696;10.358;2023-02-13T17:15:20;40.70;;;22.70;;
74523;SDS011;63074;44.696;10.358;2023-02-13T17:17:48;43.53;;;23.23;;
74523;SDS011;63074;44.696;10.358;2023-02-13T17:20:16;45.55;;;22.95;;
74523;SDS011;63074;44.696;10.358;2023-02-13T17:22:45;47.08;;;24.75;;
74523;SDS011;63074;44.696;10.358;2023-02-13T17:27:44;60.88;;;29.00;;
74523;SDS011;63074;44.696;10.358;2023-02-13T17:30:12;56.97;;;26.02;;
74523;SDS011;63074;44.696;10.358;2023-02-13T17:32:44;50.58;;;25.00;;
74523;SDS011;63074;44.696;10.358;2023-02-13T17:35:11;50.10;;;24.55;;
74523;SDS011;63074;44.696;10.358;2023-02-13T17:37:39;48.20;;;25.00;;
74523;SDS011;63074;44.696;10.358;2023-02-13T17:40:06;58.15;;;28.73;;
74523;SDS011;63074;44.696;10.358;2023-02-13T17:42:38;60.35;;;30.30;;
74523;SDS011;63074;44.696;10.358;2023-02-13T17:45:06;55.85;;;29.00;;
74523;SDS011;63074;44.696;10.358;2023-02-13T17:47:35;57.10;;;28.20;;
74523;SDS011;63074;44.696;10.358;2023-02-13T17:50:01;53.75;;;28.90;;
74523;SDS011;63074;44.696;10.358;2023-02-13T17:52:28;51.17;;;27.67;;
74523;SDS011;63074;44.696;10.358;2023-02-13T17:54:55;52.92;;;27.77;;
74523;SDS011;63074;44.696;10.358;2023-02-13T17:57:21;55.72;;;28.17;;
74523;SDS011;63074;44.696;10.358;2023-02-13T17:59:47;57.90;;;32.10;;
74523;SDS011;63074;44.696;10.358;2023-02-13T18:02:19;55.75;;;32.10;;
74523;SDS011;63074;44.696;10.358;2023-02-13T18:04:46;56.72;;;30.63;;
74523;SDS011;63074;44.696;10.358;2023-02-13T18:07:15;55.08;;;31.58;;
74523;SDS011;63074;44.696;10.358;2023-02-13T18:09:42;51.78;;;26.75;;
74523;SDS011;63074;44.696;10.358;2023-02-13T18:12:19;54.35;;;28.88;;
74523;SDS011;63074;44.696;10.358;2023-02-13T18:14:47;54.78;;;27.90;;
74523;SDS011;63074;44.696;10.358;2023-02-13T18:17:15;50.20;;;27.33;;
74523;SDS011;63074;44.696;10.358;2023-02-13T18:19:41;52.50;;;30.13;;
74523;SDS011;63074;44.696;10.358;2023-02-13T18:22:08;55.67;;;31.27;;
74523;SDS011;63074;44.696;10.358;2023-02-13T18:24:38;60.08;;;31.85;;
74523;SDS011;63074;44.696;10.358;2023-02-13T18:27:07;57.83;;;29.33;;
74523;SDS011;63074;44.696;10.358;2023-02-13T18:29:35;55.92;;;28.52;;
74523;SDS011;63074;44.696;10.358;2023-02-13T18:32:01;51.47;;;27.65;;
74523;SDS011;63074;44.696;10.358;2023-02-13T18:34:29;51.33;;;26.77;;
74523;SDS011;63074;44.696;10.358;2023-02-13T18:36:56;50.45;;;26.70;;